Time;durP1;ratioP1;P1;durP2;ratioP2;P2;SDS_P1;SDS_P2;PMS_P1;PMS_P2;Temp;Humidity;BMP_temperature;BMP_pressure;BME280_temperature;BME280_humidity;BME280_pressure;Samples;Min_cycle;Max_cycle;Signal;HPM_P1;HPM_P2
2022/10/14 00:01:09;;;;;;;12.50;9.60;;;17.90;66.40;;;;;;5113500;27;20505;-86
2022/10/14 00:03:38;;;;;;;18.93;10.50;;;18.00;66.70;;;;;;5105103;27;21144;-89
2022/10/14 00:06:06;;;;;;;13.83;9.80;;;18.10;66.40;;;;;;5083078;27;20450;-87
2022/10/14 00:08:34;;;;;;;14.60;10.30;;;17.90;66.90;;;;;;5115262;27;20538;-87
2022/10/14 00:11:05;;;;;;;15.60;9.23;;;18.00;66.80;;;;;;5071945;27;20470;-87
2022/10/14 00:13:32;;;;;;;17.27;10.10;;;17.80;66.90;;;;;;5115909;27;20470;-86
2022/10/14 00:16:00;;;;;;;17.20;9.60;;;17.90;66.70;;;;;;5081133;27;20438;-88
2022/10/14 00:18:30;;;;;;;14.87;9.10;;;18.00;67.10;;;;;;5098912;27;20454;-87
2022/10/14 00:20:58;;;;;;;18.00;9.80;;;18.10;66.00;;;;;;5104114;27;21050;-87
2022/10/14 00:23:26;;;;;;;14.60;10.20;;;18.10;65.70;;;;;;5113287;27;20791;-88
2022/10/14 00:25:53;;;;;;;16.13;9.87;;;18.10;66.00;;;;;;5098922;27;20524;-87
2022/10/14 00:28:22;;;;;;;12.87;9.33;;;18.10;65.80;;;;;;5114110;27;20447;-86
2022/10/14 00:30:55;;;;;;;11.87;9.20;;;18.10;65.80;;;;;;5100074;27;20462;-86
2022/10/14 00:33:23;;;;;;;15.00;9.60;;;18.00;66.50;;;;;;5111672;27;20580;-87
2022/10/14 00:35:56;;;;;;;15.00;10.00;;;18.00;66.60;;;;;;5067075;27;20533;-87
2022/10/14 00:38:26;;;;;;;14.93;9.67;;;18.00;66.30;;;;;;5097243;27;20448;-86
2022/10/14 00:40:55;;;;;;;14.83;10.03;;;18.00;66.10;;;;;;5082677;27;20502;-86
2022/10/14 00:43:24;;;;;;;14.60;9.57;;;18.00;66.00;;;;;;5094788;28;20454;-87
2022/10/14 00:45:51;;;;;;;18.60;9.10;;;17.80;66.70;;;;;;5083696;27;20525;-86
2022/10/14 00:48:20;;;;;;;13.93;8.73;;;17.70;67.30;;;;;;5098562;28;20846;-87
2022/10/14 00:50:56;;;;;;;11.43;8.70;;;17.70;67.30;;;;;;5085260;27;20519;-87
2022/10/14 00:53:23;;;;;;;10.70;8.70;;;17.80;67.40;;;;;;5080184;27;20463;-87
2022/10/14 00:55:53;;;;;;;14.03;9.23;;;18.00;67.10;;;;;;5080505;27;20451;-87
2022/10/14 00:58:23;;;;;;;13.10;9.33;;;18.10;66.70;;;;;;5080159;27;20445;-85
2022/10/14 01:00:51;;;;;;;13.63;9.73;;;18.30;66.10;;;;;;5097693;27;20483;-88
2022/10/14 01:03:20;;;;;;;19.37;11.43;;;18.40;66.10;;;;;;5100578;27;20474;-87
2022/10/14 01:05:55;;;;;;;15.20;9.80;;;18.30;66.00;;;;;;5080498;27;20474;-88
2022/10/14 01:08:30;;;;;;;15.40;10.97;;;18.40;65.80;;;;;;5086092;27;20533;-86
2022/10/14 01:11:05;;;;;;;21.43;11.73;;;18.50;65.60;;;;;;5098740;27;21206;-87
2022/10/14 01:13:36;;;;;;;12.30;9.63;;;18.50;65.30;;;;;;5070607;27;20470;-86
2022/10/14 01:16:13;;;;;;;16.73;11.13;;;18.60;65.20;;;;;;5111981;27;20521;-87
2022/10/14 01:18:55;;;;;;;17.37;12.20;;;18.60;65.50;;;;;;5116786;27;20438;-87
2022/10/14 01:21:27;;;;;;;13.70;10.63;;;18.40;65.50;;;;;;5093238;27;20961;-87
2022/10/14 01:24:27;;;;;;;13.97;10.13;;;18.20;66.00;;;;;;5081427;28;20799;-87
2022/10/14 01:27:10;;;;;;;14.77;10.27;;;18.20;65.90;;;;;;5113538;27;20447;-86
2022/10/14 01:30:08;;;;;;;11.10;9.77;;;18.30;65.60;;;;;;5096374;27;20561;-86
2022/10/14 01:32:42;;;;;;;14.70;10.23;;;18.40;65.60;;;;;;5059342;27;20855;-85
2022/10/14 01:35:16;;;;;;;15.03;9.93;;;18.40;65.20;;;;;;5113493;27;20442;-87
2022/10/14 01:37:49;;;;;;;16.97;10.63;;;18.50;65.10;;;;;;5071840;28;20446;-86
2022/10/14 01:40:26;;;;;;;14.73;10.10;;;18.60;64.90;;;;;;5102523;27;20992;-87
2022/10/14 01:42:57;;;;;;;16.33;10.53;;;18.60;64.60;;;;;;5071100;28;20549;-87
2022/10/14 01:45:28;;;;;;;15.70;10.07;;;18.60;64.40;;;;;;5113476;28;20926;-89
2022/10/14 01:47:58;;;;;;;13.53;8.90;;;18.60;64.40;;;;;;5070398;27;20566;-87
2022/10/14 01:50:30;;;;;;;12.70;9.43;;;18.60;64.00;;;;;;5103399;28;20551;-86
2022/10/14 01:53:03;;;;;;;17.00;9.93;;;18.60;63.80;;;;;;5098367;28;20485;-87
2022/10/14 01:55:35;;;;;;;11.97;8.70;;;18.50;63.70;;;;;;5097018;28;20452;-86
2022/10/14 01:58:04;;;;;;;11.97;9.43;;;18.50;63.90;;;;;;5066582;28;20442;-87
2022/10/14 02:00:32;;;;;;;14.30;8.80;;;18.40;63.80;;;;;;5070043;28;20455;-86
2022/10/14 02:03:02;;;;;;;14.83;10.43;;;18.40;63.80;;;;;;5092512;28;20873;-86
2022/10/14 02:05:35;;;;;;;15.27;9.80;;;18.30;64.00;;;;;;5112452;28;20931;-86
2022/10/14 02:08:10;;;;;;;14.70;9.47;;;18.40;64.40;;;;;;5096835;28;20442;-87
2022/10/14 02:10:54;;;;;;;14.33;9.17;;;18.40;64.30;;;;;;5111523;28;20474;-86
2022/10/14 02:13:34;;;;;;;12.43;8.70;;;18.50;64.20;;;;;;5095356;28;20888;-89
2022/10/14 02:16:13;;;;;;;14.53;9.10;;;18.50;64.20;;;;;;5098431;28;20453;-89
2022/10/14 02:18:48;;;;;;;13.97;8.93;;;18.60;64.30;;;;;;5094175;28;20438;-88
2022/10/14 02:21:22;;;;;;;11.93;8.43;;;18.60;63.90;;;;;;5084786;28;20469;-88
2022/10/14 02:24:14;;;;;;;13.20;8.80;;;18.50;63.60;;;;;;5112454;28;20438;-87
2022/10/14 02:26:43;;;;;;;12.90;9.30;;;18.40;63.80;;;;;;5085652;28;20469;-87
2022/10/14 02:29:12;;;;;;;13.57;8.70;;;18.40;64.10;;;;;;5084868;28;20478;-84
2022/10/14 02:31:43;;;;;;;13.37;9.90;;;18.40;63.90;;;;;;5064798;28;20454;-87
2022/10/14 02:34:16;;;;;;;15.00;8.87;;;18.40;63.60;;;;;;5103834;28;20458;-86
2022/10/14 02:36:45;;;;;;;16.60;9.30;;;18.40;63.80;;;;;;5079032;28;20461;-86
2022/10/14 02:39:15;;;;;;;15.37;10.20;;;18.40;64.10;;;;;;5111816;27;20462;-86
2022/10/14 02:41:42;;;;;;;12.00;9.03;;;18.50;64.30;;;;;;5098046;27;20454;-87
2022/10/14 02:44:09;;;;;;;11.07;9.00;;;18.50;64.20;;;;;;5099349;27;20458;-86
2022/10/14 02:46:40;;;;;;;13.13;9.30;;;18.50;63.90;;;;;;5085758;27;20463;-87
2022/10/14 02:49:10;;;;;;;13.50;9.30;;;18.50;63.60;;;;;;5090600;27;20465;-88
2022/10/14 02:51:37;;;;;;;14.40;10.30;;;18.40;63.80;;;;;;5072349;27;20894;-86
2022/10/14 02:54:04;;;;;;;14.07;8.97;;;18.40;63.80;;;;;;5082152;27;20537;-86
2022/10/14 02:56:31;;;;;;;13.50;9.57;;;18.30;63.60;;;;;;5080971;27;20462;-87
2022/10/14 02:59:00;;;;;;;16.53;9.10;;;18.30;64.70;;;;;;5098376;27;20454;-86
2022/10/14 03:01:28;;;;;;;11.87;9.90;;;18.20;64.00;;;;;;5100507;27;20447;-87
2022/10/14 03:03:57;;;;;;;15.00;9.30;;;18.30;64.20;;;;;;5115565;27;20450;-86
2022/10/14 03:06:24;;;;;;;14.07;10.00;;;18.30;64.10;;;;;;5098388;27;20482;-87
2022/10/14 03:08:51;;;;;;;15.33;10.43;;;18.30;64.10;;;;;;5089261;27;20961;-86
2022/10/14 03:11:19;;;;;;;15.70;10.80;;;18.30;64.20;;;;;;5085155;28;20550;-88
2022/10/14 03:13:46;;;;;;;17.70;10.57;;;18.20;64.30;;;;;;5090833;27;20552;-87
2022/10/14 03:16:13;;;;;;;16.40;10.70;;;18.30;64.50;;;;;;5088470;27;20451;-86
2022/10/14 03:18:44;;;;;;;14.90;10.43;;;18.30;64.00;;;;;;5064110;27;20596;-87
2022/10/14 03:21:22;;;;;;;15.90;9.93;;;18.30;63.90;;;;;;5085219;27;20446;-85
2022/10/14 03:23:49;;;;;;;17.83;9.77;;;18.30;63.70;;;;;;5081060;27;20447;-87
2022/10/14 03:26:19;;;;;;;15.00;10.70;;;18.30;63.50;;;;;;5082555;27;20455;-89
2022/10/14 03:28:47;;;;;;;14.00;9.90;;;18.40;64.00;;;;;;5072813;27;20447;-86
2022/10/14 03:31:24;;;;;;;13.17;8.90;;;18.40;64.00;;;;;;5104165;27;20434;-87
2022/10/14 03:34:21;;;;;;;16.80;10.27;;;18.30;64.80;;;;;;5097576;27;21001;-87
2022/10/14 03:36:54;;;;;;;15.70;9.23;;;18.20;65.50;;;;;;5088693;27;21234;-88
2022/10/14 03:39:22;;;;;;;18.67;11.07;;;18.30;65.40;;;;;;5077820;27;20593;-87
2022/10/14 03:41:51;;;;;;;13.60;10.20;;;18.30;64.90;;;;;;5103013;27;20469;-87
2022/10/14 03:44:22;;;;;;;12.20;10.03;;;18.40;65.40;;;;;;5100071;27;20455;-87
2022/10/14 03:47:11;;;;;;;14.37;10.23;;;18.40;64.30;;;;;;5064190;27;20534;-86
2022/10/14 03:49:39;;;;;;;19.93;10.17;;;18.40;64.30;;;;;;5106940;27;20466;-88
2022/10/14 03:52:14;;;;;;;17.73;12.87;;;18.40;64.30;;;;;;5099595;27;20450;-86
2022/10/14 03:54:43;;;;;;;16.10;11.80;;;18.40;64.10;;;;;;5090562;27;20462;-87
2022/10/14 03:57:14;;;;;;;14.53;10.40;;;18.10;63.80;;;;;;5079805;28;20557;-86
2022/10/14 03:59:48;;;;;;;15.70;11.33;;;18.00;64.30;;;;;;5081987;28;21159;-87
2022/10/14 04:02:17;;;;;;;20.30;12.37;;;18.00;64.20;;;;;;5100343;27;20506;-86
2022/10/14 04:04:44;;;;;;;19.10;12.20;;;18.10;64.30;;;;;;5087778;27;20545;-87
2022/10/14 04:07:11;;;;;;;18.40;11.80;;;18.20;64.50;;;;;;5084364;27;20441;-86
2022/10/14 04:09:43;;;;;;;19.43;11.73;;;17.90;66.00;;;;;;5084104;27;21499;-87
2022/10/14 04:12:11;;;;;;;17.67;10.97;;;17.90;66.00;;;;;;5086570;27;20458;-86
2022/10/14 04:14:48;;;;;;;20.77;12.57;;;18.10;65.70;;;;;;5089250;27;20463;-86
2022/10/14 04:17:15;;;;;;;15.80;10.80;;;18.00;65.10;;;;;;5098801;27;20458;-86
2022/10/14 04:19:44;;;;;;;24.57;11.97;;;18.10;64.70;;;;;;5097199;27;20465;-88
2022/10/14 04:22:14;;;;;;;14.23;11.17;;;18.20;64.50;;;;;;5081278;27;20554;-86
2022/10/14 04:24:41;;;;;;;16.73;10.77;;;18.30;64.40;;;;;;5086660;27;20439;-85
2022/10/14 04:27:09;;;;;;;75.77;44.10;;;18.20;64.80;;;;;;5076076;27;20455;-87
2022/10/14 04:29:48;;;;;;;53.00;36.83;;;18.30;65.30;;;;;;5092433;27;20477;-85
2022/10/14 04:32:22;;;;;;;37.33;28.10;;;18.30;65.20;;;;;;5089322;27;20453;-86
2022/10/14 04:34:49;;;;;;;29.90;23.87;;;18.40;65.00;;;;;;5079307;27;20498;-88
2022/10/14 04:37:20;;;;;;;25.53;17.00;;;18.40;64.60;;;;;;5096252;27;20874;-86
2022/10/14 04:40:10;;;;;;;21.77;14.93;;;18.40;64.60;;;;;;5096210;27;20466;-87
2022/10/14 04:42:45;;;;;;;18.00;11.40;;;18.30;65.10;;;;;;5070838;27;20448;-86
2022/10/14 04:45:20;;;;;;;19.43;12.83;;;18.30;65.20;;;;;;5073877;27;20533;-87
2022/10/14 04:47:54;;;;;;;22.63;12.63;;;18.30;65.10;;;;;;5084103;27;20529;-87
2022/10/14 04:50:24;;;;;;;17.30;13.13;;;18.30;64.70;;;;;;5124205;27;20523;-87
2022/10/14 04:53:10;;;;;;;26.90;16.00;;;18.20;65.10;;;;;;5117204;27;20441;-87
2022/10/14 04:55:40;;;;;;;19.50;13.80;;;18.00;65.90;;;;;;5105691;27;20467;-86
2022/10/14 04:58:09;;;;;;;22.90;14.00;;;18.00;65.40;;;;;;5085201;27;21247;-86
2022/10/14 05:00:41;;;;;;;18.80;13.53;;;18.10;65.20;;;;;;5100224;27;20471;-86
2022/10/14 05:03:37;;;;;;;15.60;12.40;;;18.20;65.30;;;;;;5106891;27;20449;-87
2022/10/14 05:06:05;;;;;;;20.70;13.53;;;18.30;65.20;;;;;;5098433;27;20806;-87
2022/10/14 05:08:34;;;;;;;17.00;12.83;;;18.30;65.00;;;;;;5085515;27;21110;-87
2022/10/14 05:11:01;;;;;;;17.90;13.17;;;18.40;64.80;;;;;;5088988;27;20465;-87
2022/10/14 05:13:56;;;;;;;18.00;12.27;;;18.40;64.60;;;;;;5111344;27;20455;-86
2022/10/14 05:16:26;;;;;;;15.23;12.50;;;18.30;64.80;;;;;;5087286;28;20439;-86
2022/10/14 05:18:53;;;;;;;16.07;11.83;;;18.30;64.70;;;;;;5094459;27;20530;-85
2022/10/14 05:21:21;;;;;;;18.27;13.00;;;18.40;64.60;;;;;;5108947;27;20452;-90
2022/10/14 05:23:57;;;;;;;15.83;11.63;;;18.40;64.60;;;;;;5092212;27;20499;-88
2022/10/14 05:26:27;;;;;;;16.80;12.53;;;18.40;64.60;;;;;;5108001;27;20482;-87
2022/10/14 05:28:57;;;;;;;17.27;11.83;;;18.40;64.60;;;;;;5099728;28;20534;-87
2022/10/14 05:31:24;;;;;;;17.10;11.00;;;18.40;64.50;;;;;;5113332;27;20450;-87
2022/10/14 05:34:02;;;;;;;18.40;10.40;;;18.40;64.50;;;;;;5110717;27;21399;-85
2022/10/14 05:36:29;;;;;;;13.70;10.23;;;18.20;65.00;;;;;;5110861;27;21243;-86
2022/10/14 05:38:57;;;;;;;18.13;11.53;;;18.30;64.70;;;;;;5106039;27;20457;-86
2022/10/14 05:41:27;;;;;;;20.80;10.47;;;18.20;65.30;;;;;;5106026;27;20445;-86
2022/10/14 05:43:55;;;;;;;21.50;11.47;;;18.10;64.70;;;;;;5111441;27;20457;-87
2022/10/14 05:46:23;;;;;;;19.50;11.70;;;18.10;64.60;;;;;;5093616;28;20451;-84
2022/10/14 05:48:55;;;;;;;15.30;10.60;;;18.10;64.30;;;;;;5105614;27;20450;-87
2022/10/14 05:51:23;;;;;;;19.43;12.13;;;18.20;64.80;;;;;;5107213;27;20443;-86
2022/10/14 05:53:54;;;;;;;19.63;13.00;;;18.30;64.80;;;;;;5116170;28;20845;-88
2022/10/14 05:56:21;;;;;;;21.97;15.03;;;18.30;64.60;;;;;;5108820;28;20441;-88
2022/10/14 05:58:49;;;;;;;25.00;15.07;;;18.40;64.40;;;;;;5107347;28;20531;-85
2022/10/14 06:01:16;;;;;;;24.60;15.13;;;18.40;64.20;;;;;;5117150;28;20447;-89
2022/10/14 06:03:44;;;;;;;28.97;14.50;;;18.40;64.10;;;;;;5093209;28;20453;-87
2022/10/14 06:06:13;;;;;;;20.17;13.00;;;18.40;63.80;;;;;;5110542;28;20438;-89
2022/10/14 06:08:41;;;;;;;25.07;13.17;;;18.30;64.10;;;;;;5113866;28;20470;-87
2022/10/14 06:11:08;;;;;;;17.23;12.10;;;18.40;64.30;;;;;;5108463;28;21418;-87
2022/10/14 06:13:36;;;;;;;20.17;12.07;;;18.40;64.30;;;;;;5090307;28;21093;-86
2022/10/14 06:16:04;;;;;;;21.47;12.80;;;18.40;64.20;;;;;;5084273;27;20473;-87
2022/10/14 06:18:31;;;;;;;32.77;16.90;;;18.40;64.30;;;;;;5111483;27;21022;-86
2022/10/14 06:21:00;;;;;;;19.53;12.73;;;18.40;64.10;;;;;;5114253;27;20611;-88
2022/10/14 06:23:28;;;;;;;24.50;13.77;;;18.20;65.10;;;;;;5111255;27;20454;-85
2022/10/14 06:25:55;;;;;;;27.53;15.33;;;18.20;65.30;;;;;;5110738;27;20463;-86
2022/10/14 06:28:22;;;;;;;30.70;15.80;;;18.30;65.30;;;;;;5112251;27;20446;-86
2022/10/14 06:30:50;;;;;;;26.13;14.23;;;18.20;64.80;;;;;;5109806;27;20921;-85
2022/10/14 06:33:17;;;;;;;22.37;14.17;;;18.10;65.90;;;;;;5109471;27;20449;-87
2022/10/14 06:35:44;;;;;;;40.40;21.77;;;18.10;65.80;;;;;;5112983;27;20560;-86
2022/10/14 06:38:13;;;;;;;48.07;33.33;;;18.00;66.30;;;;;;5113000;27;20459;-87
2022/10/14 06:40:40;;;;;;;46.60;34.60;;;18.10;66.40;;;;;;5111083;27;20730;-85
2022/10/14 06:43:07;;;;;;;52.17;31.13;;;18.10;66.50;;;;;;5112249;27;20498;-88
2022/10/14 06:45:34;;;;;;;34.80;22.93;;;18.30;66.10;;;;;;5115010;27;20543;-86
2022/10/14 06:48:03;;;;;;;28.80;19.10;;;18.40;65.70;;;;;;5114214;27;21060;-87
2022/10/14 06:50:30;;;;;;;27.27;18.00;;;18.60;65.50;;;;;;5114168;27;20474;-88
2022/10/14 06:52:58;;;;;;;24.90;17.03;;;18.60;65.50;;;;;;5110440;27;20474;-86
2022/10/14 06:55:27;;;;;;;26.63;15.97;;;18.60;65.70;;;;;;5109801;27;20477;-86
2022/10/14 06:57:54;;;;;;;24.30;14.57;;;18.70;65.80;;;;;;5110078;27;20459;-86
2022/10/14 07:00:22;;;;;;;19.90;13.37;;;18.60;65.80;;;;;;5110305;27;20482;-86
2022/10/14 07:02:49;;;;;;;20.20;12.40;;;18.40;66.50;;;;;;5112327;27;20442;-85
2022/10/14 07:05:16;;;;;;;18.50;11.80;;;18.20;67.00;;;;;;5111339;27;20446;-86
2022/10/14 07:07:43;;;;;;;26.60;13.77;;;18.30;67.00;;;;;;5112537;27;20499;-85
2022/10/14 07:10:10;;;;;;;21.60;14.80;;;18.50;66.80;;;;;;5112048;27;20481;-88
2022/10/14 07:12:38;;;;;;;22.07;13.70;;;18.60;66.60;;;;;;5109451;27;20906;-87
2022/10/14 07:15:06;;;;;;;27.43;15.10;;;18.50;66.50;;;;;;5107895;27;20542;-88
2022/10/14 07:17:34;;;;;;;31.03;16.63;;;18.40;66.80;;;;;;5108742;27;20451;-86
2022/10/14 07:20:01;;;;;;;23.93;16.57;;;18.40;66.60;;;;;;5112417;27;20548;-86
2022/10/14 07:22:28;;;;;;;24.80;15.47;;;18.60;66.50;;;;;;5109912;27;20442;-86
2022/10/14 07:24:54;;;;;;;24.03;16.33;;;18.70;66.10;;;;;;5107341;27;20438;-87
2022/10/14 07:27:22;;;;;;;38.00;20.57;;;18.70;66.10;;;;;;5113771;27;20493;-86
2022/10/14 07:29:51;;;;;;;39.07;18.90;;;18.70;66.30;;;;;;5112548;27;20549;-87
2022/10/14 07:32:18;;;;;;;25.13;18.03;;;18.70;66.60;;;;;;5110154;27;20474;-86
2022/10/14 07:34:45;;;;;;;31.20;19.00;;;18.60;67.00;;;;;;5113268;27;20558;-87
2022/10/14 07:37:12;;;;;;;27.63;19.27;;;18.60;67.10;;;;;;5119839;27;20451;-87
2022/10/14 07:39:39;;;;;;;35.90;19.53;;;18.30;68.10;;;;;;5113501;27;20455;-87
2022/10/14 07:42:06;;;;;;;26.63;17.37;;;18.50;68.00;;;;;;5110870;27;21000;-85
2022/10/14 07:44:34;;;;;;;22.93;15.40;;;18.70;67.60;;;;;;5112947;27;20546;-85
2022/10/14 07:47:02;;;;;;;23.80;16.97;;;18.80;67.30;;;;;;5112063;27;21259;-86
2022/10/14 07:49:29;;;;;;;21.27;13.80;;;18.80;67.80;;;;;;5098149;27;20466;-85
2022/10/14 07:51:57;;;;;;;23.23;15.37;;;18.90;66.10;;;;;;5109727;27;20447;-88
2022/10/14 07:54:28;;;;;;;30.00;17.50;;;18.50;66.70;;;;;;5112319;27;20503;-87
2022/10/14 07:56:56;;;;;;;31.17;19.47;;;18.50;68.00;;;;;;5109989;27;20493;-86
2022/10/14 07:59:24;;;;;;;26.30;18.10;;;18.70;68.20;;;;;;5113303;27;20539;-86
2022/10/14 08:01:52;;;;;;;25.83;18.10;;;18.90;67.80;;;;;;5108776;27;20460;-86
2022/10/14 08:04:21;;;;;;;27.00;17.80;;;19.10;66.90;;;;;;5091772;27;20981;-86
2022/10/14 08:06:48;;;;;;;24.93;17.27;;;19.10;66.90;;;;;;5109380;27;21027;-88
2022/10/14 08:09:15;;;;;;;25.60;16.80;;;19.20;66.80;;;;;;5108385;27;20470;-87
2022/10/14 08:11:43;;;;;;;24.93;16.73;;;19.20;66.70;;;;;;5111377;27;20506;-88
2022/10/14 08:14:11;;;;;;;25.20;16.40;;;19.20;66.70;;;;;;5110015;27;21072;-87
2022/10/14 08:16:39;;;;;;;24.67;14.67;;;19.30;66.60;;;;;;5112668;27;20497;-85
2022/10/14 08:19:09;;;;;;;25.27;16.47;;;19.40;66.30;;;;;;5109748;27;20466;-87
2022/10/14 08:21:38;;;;;;;24.33;16.50;;;19.40;66.00;;;;;;5112296;27;21462;-85
2022/10/14 08:24:05;;;;;;;26.50;16.27;;;19.40;66.30;;;;;;5108384;27;20504;-86
2022/10/14 08:26:34;;;;;;;22.43;14.63;;;19.50;66.40;;;;;;5113009;27;20593;-86
2022/10/14 08:29:03;;;;;;;18.87;13.77;;;19.50;66.30;;;;;;5108171;27;20538;-88
2022/10/14 08:31:30;;;;;;;17.70;11.10;;;19.60;66.30;;;;;;5110888;27;20477;-85
2022/10/14 08:33:57;;;;;;;12.03;9.13;;;19.40;64.90;;;;;;5111854;27;21008;-87
2022/10/14 08:36:25;;;;;;;20.70;14.70;;;19.40;64.90;;;;;;5092430;27;20551;-87
2022/10/14 08:38:54;;;;;;;19.03;12.47;;;19.50;65.00;;;;;;5108319;27;20451;-89
2022/10/14 08:41:45;;;;;;;17.60;11.97;;;19.60;65.40;;;;;;5101616;27;21177;-89
2022/10/14 08:44:18;;;;;;;16.67;12.00;;;19.70;65.10;;;;;;5109222;27;21061;-88
2022/10/14 08:46:50;;;;;;;16.77;11.33;;;19.70;64.60;;;;;;5111057;27;20450;-86
2022/10/14 08:49:23;;;;;;;18.07;11.70;;;19.60;64.70;;;;;;5109884;27;20466;-86
2022/10/14 08:51:56;;;;;;;21.60;14.33;;;19.50;65.10;;;;;;5091149;27;20449;-86
2022/10/14 08:54:32;;;;;;;19.20;13.13;;;19.50;65.60;;;;;;5108504;27;20451;-87
2022/10/14 08:57:00;;;;;;;20.00;13.30;;;19.60;66.00;;;;;;5110069;27;21221;-87
2022/10/14 08:59:27;;;;;;;15.50;12.03;;;19.60;66.20;;;;;;5112806;27;20554;-86
2022/10/14 09:01:59;;;;;;;16.77;11.53;;;19.50;66.20;;;;;;5109759;27;20516;-87
2022/10/14 09:04:26;;;;;;;21.13;12.33;;;19.60;66.50;;;;;;5110132;27;20464;-86
2022/10/14 09:06:55;;;;;;;15.57;10.73;;;19.70;66.00;;;;;;5114800;27;20448;-86
2022/10/14 09:09:27;;;;;;;22.30;11.10;;;19.70;65.80;;;;;;5113299;27;20461;-86
2022/10/14 09:11:58;;;;;;;17.77;12.00;;;19.70;65.80;;;;;;5097311;27;20499;-87
2022/10/14 09:14:29;;;;;;;15.00;11.40;;;19.90;65.40;;;;;;5111775;27;20529;-85
2022/10/14 09:17:03;;;;;;;15.83;10.40;;;20.00;64.70;;;;;;5112246;27;21273;-87
2022/10/14 09:19:32;;;;;;;14.80;10.53;;;20.00;63.90;;;;;;5117312;27;21392;-87
2022/10/14 09:22:01;;;;;;;16.93;10.23;;;19.90;64.50;;;;;;5109625;27;20458;-87
2022/10/14 09:24:34;;;;;;;13.47;9.03;;;19.80;64.70;;;;;;5109124;27;20465;-87
2022/10/14 09:27:05;;;;;;;13.27;9.67;;;19.70;65.20;;;;;;5103134;27;20441;-87
2022/10/14 09:29:36;;;;;;;19.30;9.90;;;19.60;65.40;;;;;;5111562;27;20498;-86
2022/10/14 09:32:06;;;;;;;14.30;8.73;;;19.70;66.40;;;;;;5109869;27;20537;-88
2022/10/14 09:34:37;;;;;;;15.63;8.77;;;19.90;64.90;;;;;;5112357;27;20438;-85
2022/10/14 09:37:18;;;;;;;15.70;8.93;;;20.10;64.30;;;;;;5110022;27;20818;-86
2022/10/14 09:39:48;;;;;;;12.40;8.17;;;20.30;63.90;;;;;;5095963;28;20561;-87
2022/10/14 09:42:19;;;;;;;20.53;5.63;;;20.40;63.30;;;;;;5111451;27;20450;-86
2022/10/14 09:45:05;;;;;;;13.67;7.40;;;20.20;61.60;;;;;;5109074;27;20546;-87
2022/10/14 09:47:40;;;;;;;8.87;5.50;;;19.70;64.30;;;;;;5107668;27;20474;-87
2022/10/14 09:50:09;;;;;;;7.80;6.00;;;19.90;64.60;;;;;;5083766;27;20910;-87
2022/10/14 09:52:38;;;;;;;11.67;5.47;;;19.80;63.60;;;;;;5081501;28;20523;-87
2022/10/14 09:55:18;;;;;;;10.17;6.80;;;19.90;64.10;;;;;;5106007;28;20455;-87
2022/10/14 09:57:45;;;;;;;6.77;5.80;;;20.10;63.10;;;;;;5106341;28;20450;-87
2022/10/14 10:00:26;;;;;;;9.83;6.20;;;20.10;61.80;;;;;;5113562;28;20502;-89
2022/10/14 10:02:54;;;;;;;6.40;5.37;;;20.30;62.60;;;;;;5091119;28;21342;-88
2022/10/14 10:05:24;;;;;;;12.70;8.13;;;20.60;62.60;;;;;;5107724;27;20447;-88
2022/10/14 10:08:11;;;;;;;20.07;10.43;;;20.40;60.20;;;;;;5106397;28;20444;-86
2022/10/14 10:10:40;;;;;;;16.43;8.87;;;20.10;61.30;;;;;;5109920;28;20473;-86
2022/10/14 10:13:22;;;;;;;10.30;7.17;;;20.00;62.50;;;;;;5104862;28;20464;-87
2022/10/14 10:15:57;;;;;;;14.30;7.67;;;20.20;62.60;;;;;;5111057;28;21027;-87
2022/10/14 10:18:25;;;;;;;12.80;6.33;;;20.50;62.30;;;;;;5110505;28;21140;-84
2022/10/14 10:21:04;;;;;;;11.63;5.90;;;20.50;62.30;;;;;;5112080;28;20797;-85
2022/10/14 10:23:31;;;;;;;6.70;5.87;;;20.70;62.00;;;;;;5109369;28;20482;-88
2022/10/14 10:26:16;;;;;;;7.40;6.60;;;20.80;61.00;;;;;;5111347;28;20538;-86
2022/10/14 10:28:47;;;;;;;10.23;6.10;;;20.60;61.00;;;;;;5110895;28;20569;-85
2022/10/14 10:31:39;;;;;;;7.67;6.00;;;20.10;61.10;;;;;;5109727;28;20547;-88
2022/10/14 10:34:27;;;;;;;8.43;4.90;;;19.90;62.90;;;;;;5094270;28;20438;-86
2022/10/14 10:36:59;;;;;;;10.13;5.60;;;20.30;61.50;;;;;;5108985;28;20480;-86
2022/10/14 10:39:36;;;;;;;8.87;5.20;;;20.30;61.40;;;;;;5105799;28;20473;-86
2022/10/14 10:42:12;;;;;;;6.13;5.30;;;20.30;60.10;;;;;;5108278;28;20742;-88
2022/10/14 10:44:56;;;;;;;5.37;4.70;;;20.30;62.90;;;;;;5108191;28;20928;-86
2022/10/14 10:47:33;;;;;;;4.73;4.23;;;20.40;61.50;;;;;;5106686;28;20453;-86
2022/10/14 10:50:28;;;;;;;7.27;5.17;;;20.00;62.00;;;;;;5111027;28;20956;-86
2022/10/14 10:53:05;;;;;;;5.50;4.97;;;20.00;63.10;;;;;;5109033;28;20433;-86
2022/10/14 10:55:39;;;;;;;8.13;5.10;;;20.20;62.30;;;;;;5109525;28;21033;-86
2022/10/14 10:58:26;;;;;;;7.73;5.97;;;20.40;61.90;;;;;;5101157;28;20446;-86
2022/10/14 11:01:00;;;;;;;5.17;4.17;;;20.70;61.40;;;;;;5095904;27;20478;-88
2022/10/14 11:03:41;;;;;;;13.23;7.97;;;20.90;59.90;;;;;;5102130;27;20825;-87
2022/10/14 11:12:01;;;;;;;20.50;11.10;;;20.50;59.40;;;;;;5120506;27;20493;-87
2022/10/14 11:12:06;;;;;;;15.73;5.70;;;20.60;60.70;;;;;;5114340;27;20469;-85
2022/10/14 11:15:02;;;;;;;8.17;4.80;;;20.80;60.00;;;;;;5113969;27;20455;-85
2022/10/14 11:17:38;;;;;;;27.30;12.57;;;20.90;59.00;;;;;;5113270;27;20465;-85
2022/10/14 11:20:14;;;;;;;6.07;5.00;;;20.80;59.70;;;;;;5113394;27;20522;-84
2022/10/14 11:23:05;;;;;;;5.97;5.07;;;21.00;60.50;;;;;;5113184;27;20446;-83
2022/10/14 11:25:43;;;;;;;7.27;5.10;;;21.10;59.60;;;;;;5113388;27;20448;-85
2022/10/14 11:28:18;;;;;;;6.63;4.80;;;21.30;59.10;;;;;;5115213;27;20446;-86
2022/10/14 11:30:51;;;;;;;11.17;6.87;;;21.30;58.60;;;;;;5110807;27;20547;-86
2022/10/14 11:33:31;;;;;;;8.47;5.47;;;21.40;58.30;;;;;;5115976;27;20442;-87
2022/10/14 11:36:11;;;;;;;6.93;5.10;;;21.30;58.70;;;;;;5114378;27;20484;-86
2022/10/14 11:38:48;;;;;;;8.90;5.47;;;21.50;59.40;;;;;;5111785;27;20446;-86
2022/10/14 11:41:25;;;;;;;9.07;5.90;;;21.60;58.50;;;;;;5111502;27;21140;-86
2022/10/14 11:43:58;;;;;;;9.00;5.20;;;21.70;58.70;;;;;;5110991;27;21166;-86
2022/10/14 11:46:34;;;;;;;20.13;9.57;;;21.50;57.60;;;;;;5110986;27;20449;-85
2022/10/14 11:49:05;;;;;;;29.10;10.57;;;21.40;57.60;;;;;;5111257;27;20546;-84
2022/10/14 11:51:37;;;;;;;7.00;4.43;;;20.90;56.90;;;;;;5111172;27;20893;-87
2022/10/14 11:54:10;;;;;;;16.70;7.60;;;20.70;62.30;;;;;;5113822;27;20441;-85
2022/10/14 11:56:44;;;;;;;7.13;4.00;;;20.90;59.90;;;;;;5111186;27;20890;-86
2022/10/14 11:59:24;;;;;;;9.20;6.40;;;21.10;58.20;;;;;;5111765;27;20454;-85
2022/10/14 12:02:00;;;;;;;4.30;3.60;;;21.20;57.50;;;;;;5111844;27;20456;-85
2022/10/14 12:04:31;;;;;;;4.40;3.27;;;20.90;57.30;;;;;;5112460;27;20874;-85
2022/10/14 12:07:04;;;;;;;4.77;3.67;;;20.80;57.70;;;;;;5112288;27;20973;-84
2022/10/14 12:09:37;;;;;;;7.10;3.83;;;21.00;57.10;;;;;;5102911;27;20558;-84
2022/10/14 12:12:07;;;;;;;5.63;2.70;;;21.00;57.10;;;;;;5103479;27;21433;-86
2022/10/14 12:14:38;;;;;;;5.13;3.07;;;21.10;57.40;;;;;;5112788;27;20482;-85
2022/10/14 12:17:18;;;;;;;3.70;2.77;;;21.00;58.70;;;;;;5107703;27;20593;-86
2022/10/14 12:19:45;;;;;;;4.57;3.67;;;21.20;56.90;;;;;;5111087;27;20961;-83
2022/10/14 12:22:18;;;;;;;3.40;2.60;;;21.40;56.90;;;;;;5111078;27;20450;-85
2022/10/14 12:24:48;;;;;;;3.90;3.20;;;21.60;58.20;;;;;;5110614;27;20446;-86
2022/10/14 12:27:17;;;;;;;5.17;3.53;;;21.80;57.20;;;;;;5111820;27;20457;-86
2022/10/14 12:29:48;;;;;;;3.43;3.13;;;22.00;56.10;;;;;;5112642;27;21258;-85
2022/10/14 12:32:23;;;;;;;3.87;3.47;;;22.00;54.90;;;;;;5111370;27;20443;-86
2022/10/14 12:34:52;;;;;;;5.10;2.90;;;21.90;56.60;;;;;;5112149;27;20465;-86
2022/10/14 12:37:50;;;;;;;9.23;3.23;;;21.90;55.00;;;;;;5113467;27;20553;-86
2022/10/14 12:40:29;;;;;;;5.00;3.03;;;21.40;56.00;;;;;;5107156;27;20463;-85
2022/10/14 12:43:14;;;;;;;4.00;3.00;;;21.10;56.90;;;;;;5114149;27;20458;-86
2022/10/14 12:46:00;;;;;;;3.23;2.97;;;21.10;58.40;;;;;;5114218;27;20446;-87
2022/10/14 12:48:32;;;;;;;5.47;3.80;;;21.30;58.00;;;;;;5111247;27;20469;-85
2022/10/14 12:51:10;;;;;;;5.53;3.30;;;21.30;58.00;;;;;;5113421;27;20499;-84
2022/10/14 12:53:40;;;;;;;5.37;2.50;;;21.40;57.10;;;;;;5112679;27;20442;-85
2022/10/14 12:56:07;;;;;;;5.93;3.20;;;21.10;56.80;;;;;;5113883;27;20450;-83
2022/10/14 12:58:38;;;;;;;5.20;2.80;;;21.20;57.80;;;;;;5109322;27;21013;-87
2022/10/14 13:01:15;;;;;;;5.07;4.60;;;21.40;57.70;;;;;;5110016;27;20531;-86